Time;durP1;ratioP1;P1;durP2;ratioP2;P2;SDS_P1;SDS_P2;PMS_P1;PMS_P2;Temp;Humidity;BMP_temperature;BMP_pressure;BME280_temperature;BME280_humidity;BME280_pressure;Samples;Min_cycle;Max_cycle;Signal;HPM_P1;HPM_P2
2021/07/08 00:00:25;;;;;;;5.97;2.75;;;18.20;77.20;;;;;;5094620;28;20020;-85
2021/07/08 00:02:51;;;;;;;4.13;2.30;;;18.30;77.40;;;;;;5110309;28;20046;-85
2021/07/08 00:05:20;;;;;;;4.72;2.78;;;18.20;77.50;;;;;;5110702;28;20519;-85
2021/07/08 00:07:46;;;;;;;5.43;2.85;;;18.20;77.60;;;;;;5110991;28;20081;-85
2021/07/08 00:10:15;;;;;;;5.85;2.67;;;18.20;77.70;;;;;;5093667;28;20024;-85
2021/07/08 00:12:41;;;;;;;3.55;2.30;;;18.20;77.80;;;;;;5109459;28;20062;-85
2021/07/08 00:15:13;;;;;;;4.47;3.08;;;18.20;77.90;;;;;;5093285;28;20053;-84
2021/07/08 00:17:44;;;;;;;5.70;2.87;;;18.30;78.00;;;;;;5109762;28;20027;-85
2021/07/08 00:20:13;;;;;;;6.80;3.10;;;18.30;78.00;;;;;;5111632;28;20363;-85
2021/07/08 00:22:39;;;;;;;4.20;2.85;;;18.30;78.00;;;;;;5110944;28;20031;-84
2021/07/08 00:25:11;;;;;;;4.95;3.10;;;18.30;78.10;;;;;;5110093;28;20550;-84
2021/07/08 00:27:36;;;;;;;4.95;2.85;;;18.30;78.20;;;;;;5109771;28;20114;-83
2021/07/08 00:30:05;;;;;;;6.65;3.13;;;18.30;78.10;;;;;;5110429;28;20111;-85
2021/07/08 00:32:31;;;;;;;6.85;3.00;;;18.30;78.30;;;;;;5109331;28;20032;-84
2021/07/08 00:34:57;;;;;;;3.85;2.47;;;18.30;78.50;;;;;;5093134;28;20437;-84
2021/07/08 00:37:23;;;;;;;5.40;2.67;;;18.30;78.70;;;;;;5110267;28;20032;-84
2021/07/08 00:39:48;;;;;;;6.10;3.17;;;18.30;78.80;;;;;;5092570;28;20023;-85
2021/07/08 00:42:14;;;;;;;5.40;3.08;;;18.30;78.80;;;;;;5093510;28;20039;-85
2021/07/08 00:44:40;;;;;;;6.68;3.03;;;18.30;78.90;;;;;;5109773;28;20027;-85
2021/07/08 00:47:06;;;;;;;8.43;3.30;;;18.20;79.00;;;;;;5093512;28;20028;-85
2021/07/08 00:49:32;;;;;;;6.15;3.60;;;18.30;79.30;;;;;;5111410;28;20058;-83
2021/07/08 00:51:57;;;;;;;5.55;3.83;;;18.20;79.30;;;;;;5093319;28;20031;-85
2021/07/08 00:54:23;;;;;;;4.70;3.47;;;18.10;79.60;;;;;;5093145;28;20043;-86
2021/07/08 00:56:49;;;;;;;6.65;3.33;;;18.10;79.80;;;;;;5110554;28;20036;-84
2021/07/08 00:59:14;;;;;;;6.18;3.72;;;18.00;80.00;;;;;;5092367;28;20027;-84
2021/07/08 01:01:41;;;;;;;4.72;3.53;;;18.00;80.10;;;;;;5092166;28;20498;-84
2021/07/08 01:04:07;;;;;;;3.85;3.55;;;18.00;80.30;;;;;;5092868;28;20053;-85
2021/07/08 01:06:34;;;;;;;6.00;3.33;;;17.90;80.30;;;;;;5109649;28;20050;-85
2021/07/08 01:09:01;;;;;;;7.85;3.25;;;17.80;80.30;;;;;;5093899;28;20039;-84
2021/07/08 01:11:27;;;;;;;5.35;3.35;;;17.80;80.40;;;;;;5113409;28;20535;-85
2021/07/08 01:13:53;;;;;;;4.68;3.15;;;17.80;80.60;;;;;;5078870;28;20092;-85
2021/07/08 01:16:20;;;;;;;5.78;3.53;;;17.80;80.70;;;;;;5113623;28;20035;-84
2021/07/08 01:18:45;;;;;;;4.85;3.70;;;17.80;80.70;;;;;;5112427;28;20111;-85
2021/07/08 01:21:26;;;;;;;4.32;3.28;;;17.70;80.80;;;;;;5079424;28;20164;-83
2021/07/08 01:23:54;;;;;;;6.93;3.75;;;17.70;81.00;;;;;;5113666;27;20467;-84
2021/07/08 01:26:20;;;;;;;5.13;3.30;;;17.70;81.10;;;;;;5113238;28;20057;-85
2021/07/08 01:28:47;;;;;;;5.80;3.75;;;17.70;81.20;;;;;;5095429;28;20107;-84
2021/07/08 01:31:13;;;;;;;5.93;3.80;;;17.70;81.30;;;;;;5096613;28;20041;-84
2021/07/08 01:33:39;;;;;;;4.18;3.50;;;17.80;81.40;;;;;;5112640;28;20491;-83
2021/07/08 01:36:05;;;;;;;7.75;3.40;;;17.80;81.40;;;;;;5095725;28;20467;-84
2021/07/08 01:38:30;;;;;;;5.45;3.50;;;17.80;81.40;;;;;;5114715;28;20524;-84
2021/07/08 01:40:56;;;;;;;3.92;3.33;;;17.80;81.50;;;;;;5095968;28;20032;-84
2021/07/08 01:43:22;;;;;;;6.80;3.10;;;17.80;81.50;;;;;;5113089;28;20502;-84
2021/07/08 01:45:48;;;;;;;4.20;3.58;;;17.80;81.40;;;;;;5095194;28;20081;-84
2021/07/08 01:48:13;;;;;;;5.32;3.78;;;17.80;81.40;;;;;;5095807;28;20113;-84
2021/07/08 01:50:39;;;;;;;6.28;3.70;;;17.80;81.40;;;;;;5112715;28;20119;-85
2021/07/08 01:53:05;;;;;;;6.50;3.40;;;17.70;81.50;;;;;;5095257;28;20040;-84
2021/07/08 01:55:30;;;;;;;6.95;3.45;;;17.70;81.60;;;;;;5113144;28;20114;-84
2021/07/08 01:57:57;;;;;;;5.38;3.60;;;17.70;81.70;;;;;;5095617;28;20463;-84
2021/07/08 02:00:24;;;;;;;3.92;3.22;;;17.70;81.90;;;;;;5096113;28;20097;-85
2021/07/08 02:02:55;;;;;;;4.15;3.20;;;17.70;82.00;;;;;;5112629;28;20063;-84
2021/07/08 02:05:21;;;;;;;5.60;3.67;;;17.70;82.00;;;;;;5112990;28;20024;-84
2021/07/08 02:07:47;;;;;;;4.95;3.72;;;17.70;82.00;;;;;;5112759;28;20119;-83
2021/07/08 02:10:16;;;;;;;5.53;3.38;;;17.70;82.10;;;;;;5096284;28;20122;-84
2021/07/08 02:12:43;;;;;;;4.50;3.10;;;17.70;82.10;;;;;;5113072;28;20424;-84
2021/07/08 02:15:09;;;;;;;4.82;3.38;;;17.70;82.10;;;;;;5112033;28;20032;-85
2021/07/08 02:17:36;;;;;;;5.68;3.35;;;17.70;82.10;;;;;;5095639;28;20430;-85
2021/07/08 02:20:03;;;;;;;7.03;3.63;;;17.70;82.10;;;;;;5111571;28;20052;-84
2021/07/08 02:22:29;;;;;;;7.60;3.58;;;17.60;82.20;;;;;;5113793;28;20028;-84
2021/07/08 02:24:55;;;;;;;5.82;3.55;;;17.60;82.50;;;;;;5096812;28;20028;-84
2021/07/08 02:27:20;;;;;;;4.07;3.60;;;17.50;82.40;;;;;;5096649;28;20036;-84
2021/07/08 02:29:46;;;;;;;3.60;3.03;;;17.40;82.40;;;;;;5113588;28;20372;-84
2021/07/08 02:32:12;;;;;;;4.55;3.22;;;17.40;82.60;;;;;;5111849;28;20034;-84
2021/07/08 02:34:38;;;;;;;4.65;3.78;;;17.30;82.80;;;;;;5111839;28;20398;-84
2021/07/08 02:37:07;;;;;;;4.70;4.15;;;17.20;82.90;;;;;;5111651;28;20023;-84
2021/07/08 02:39:34;;;;;;;6.03;3.75;;;17.10;83.20;;;;;;5112088;28;20035;-85
2021/07/08 02:42:00;;;;;;;4.88;3.80;;;17.00;83.70;;;;;;5111481;28;20464;-84
2021/07/08 02:44:26;;;;;;;5.90;3.88;;;16.90;83.90;;;;;;5113532;28;20035;-84
2021/07/08 02:46:52;;;;;;;5.60;3.70;;;16.90;84.10;;;;;;5111953;28;20035;-84
2021/07/08 02:49:17;;;;;;;5.57;3.72;;;16.80;84.30;;;;;;5113479;28;20059;-85
2021/07/08 02:51:43;;;;;;;6.15;3.30;;;16.80;84.50;;;;;;5114475;28;20028;-85
2021/07/08 02:54:09;;;;;;;5.45;4.50;;;16.70;84.70;;;;;;5096481;28;20111;-84
2021/07/08 02:56:35;;;;;;;5.32;4.20;;;16.60;84.90;;;;;;5105957;28;20023;-84
2021/07/08 02:59:01;;;;;;;4.85;3.50;;;16.60;85.20;;;;;;5123550;28;20035;-85
2021/07/08 03:01:27;;;;;;;7.15;4.45;;;16.50;85.30;;;;;;5104308;28;20035;-84
2021/07/08 03:03:53;;;;;;;6.95;3.97;;;16.50;85.50;;;;;;5099426;28;20032;-82
2021/07/08 03:06:18;;;;;;;4.03;3.63;;;16.50;85.60;;;;;;5096990;28;20051;-84
2021/07/08 03:08:44;;;;;;;5.75;3.83;;;16.40;85.60;;;;;;5095643;28;20027;-85
2021/07/08 03:11:10;;;;;;;7.05;4.13;;;16.40;85.80;;;;;;5076703;28;20467;-85
2021/07/08 03:13:37;;;;;;;5.00;3.85;;;16.40;86.00;;;;;;5111842;28;20046;-85
2021/07/08 03:16:05;;;;;;;4.82;3.95;;;16.40;86.20;;;;;;5110925;28;20114;-84
2021/07/08 03:18:30;;;;;;;5.25;4.00;;;16.40;86.30;;;;;;5111757;28;20033;-84
2021/07/08 03:20:56;;;;;;;5.55;4.28;;;16.40;86.30;;;;;;5076975;28;20028;-83
2021/07/08 03:23:22;;;;;;;6.85;4.05;;;16.40;86.40;;;;;;5094345;28;20505;-84
2021/07/08 03:25:47;;;;;;;6.85;4.20;;;16.30;86.40;;;;;;5111574;28;20027;-85
2021/07/08 03:28:13;;;;;;;7.03;4.15;;;16.30;86.40;;;;;;5093366;28;20031;-83
2021/07/08 03:30:39;;;;;;;8.85;4.57;;;16.30;86.80;;;;;;5112052;28;20094;-84
2021/07/08 03:33:05;;;;;;;6.30;4.65;;;16.30;86.50;;;;;;5110299;28;20038;-84
2021/07/08 03:35:30;;;;;;;5.95;4.53;;;16.20;86.40;;;;;;5111484;28;20463;-84
2021/07/08 03:37:57;;;;;;;9.90;4.90;;;16.20;86.50;;;;;;5110544;28;20051;-84
2021/07/08 03:40:24;;;;;;;7.10;4.78;;;16.20;86.60;;;;;;5109973;28;20100;-84
2021/07/08 03:42:49;;;;;;;7.00;4.75;;;16.20;86.70;;;;;;5110745;28;20559;-83
2021/07/08 03:45:16;;;;;;;5.18;4.65;;;16.20;86.80;;;;;;5092872;28;20127;-84
2021/07/08 03:47:43;;;;;;;8.10;4.93;;;16.20;86.70;;;;;;5110406;28;20487;-85
2021/07/08 03:50:10;;;;;;;6.72;4.85;;;16.20;86.70;;;;;;5092825;28;20060;-84
2021/07/08 03:52:39;;;;;;;6.47;5.03;;;16.20;86.60;;;;;;5110798;28;20157;-84
2021/07/08 03:55:07;;;;;;;6.20;5.10;;;16.30;86.50;;;;;;5092944;28;20036;-84
2021/07/08 03:57:33;;;;;;;6.70;4.50;;;16.20;86.40;;;;;;5110531;28;20023;-85
2021/07/08 03:59:58;;;;;;;10.38;6.00;;;16.20;86.40;;;;;;5110381;28;20340;-83
2021/07/08 04:02:24;;;;;;;9.07;5.90;;;16.20;86.50;;;;;;5111293;28;20032;-84
2021/07/08 04:04:50;;;;;;;8.00;5.60;;;16.20;86.70;;;;;;5093474;28;20462;-84
2021/07/08 04:07:15;;;;;;;6.60;5.15;;;16.20;86.70;;;;;;5109831;28;20027;-84
2021/07/08 04:09:41;;;;;;;8.10;4.95;;;16.20;86.60;;;;;;5110086;28;20031;-85
2021/07/08 04:12:07;;;;;;;9.68;5.45;;;16.20;86.60;;;;;;5092435;28;20645;-85
2021/07/08 04:14:33;;;;;;;7.57;5.85;;;16.30;86.50;;;;;;5076447;28;20050;-84
2021/07/08 04:16:58;;;;;;;6.90;5.22;;;16.40;86.40;;;;;;5093112;28;20031;-85
2021/07/08 04:19:24;;;;;;;7.22;5.50;;;16.50;86.10;;;;;;5109482;28;20036;-84
2021/07/08 04:21:50;;;;;;;8.15;5.03;;;16.70;85.70;;;;;;5093079;28;20020;-84
2021/07/08 04:24:15;;;;;;;9.38;5.85;;;16.90;85.20;;;;;;5109357;28;20123;-85
2021/07/08 04:26:42;;;;;;;6.35;5.45;;;17.10;84.60;;;;;;5093129;28;20028;-85
2021/07/08 04:29:07;;;;;;;9.52;6.18;;;17.30;84.00;;;;;;5092418;28;20054;-84
2021/07/08 04:31:33;;;;;;;6.82;5.80;;;17.50;83.20;;;;;;5093511;28;20031;-85
2021/07/08 04:33:59;;;;;;;8.00;5.68;;;17.60;82.90;;;;;;5076087;28;20036;-84
2021/07/08 04:36:24;;;;;;;9.63;7.38;;;17.60;82.90;;;;;;5075357;28;20023;-83
2021/07/08 04:38:53;;;;;;;8.93;6.53;;;17.50;82.80;;;;;;5093016;28;20028;-83
2021/07/08 04:41:20;;;;;;;11.82;6.78;;;17.40;82.90;;;;;;5108676;28;20443;-84
2021/07/08 04:43:46;;;;;;;9.43;5.90;;;17.50;82.80;;;;;;5094122;28;20114;-85
2021/07/08 04:46:12;;;;;;;7.95;6.05;;;17.70;82.20;;;;;;5079386;28;20131;-84
2021/07/08 04:48:38;;;;;;;7.93;6.25;;;18.20;81.70;;;;;;5113753;28;20604;-85
2021/07/08 04:51:04;;;;;;;6.40;5.30;;;18.70;80.20;;;;;;5096837;28;20122;-84
2021/07/08 04:53:30;;;;;;;5.68;4.72;;;19.30;78.60;;;;;;5114543;28;20561;-85
2021/07/08 04:55:56;;;;;;;9.43;5.38;;;19.40;77.80;;;;;;5096784;28;20024;-85
2021/07/08 04:58:21;;;;;;;7.53;5.05;;;19.30;77.70;;;;;;5096164;28;20114;-83
2021/07/08 05:00:47;;;;;;;13.10;4.80;;;19.10;78.00;;;;;;5096718;28;20028;-82
2021/07/08 05:03:13;;;;;;;11.60;5.03;;;18.80;78.50;;;;;;5113965;28;20047;-83
2021/07/08 05:05:39;;;;;;;7.57;5.28;;;18.60;79.10;;;;;;5113782;28;20051;-85
2021/07/08 05:08:06;;;;;;;5.78;4.95;;;18.40;79.60;;;;;;5113396;28;20034;-84
2021/07/08 05:10:32;;;;;;;5.40;4.68;;;18.30;80.10;;;;;;5112310;28;20023;-85
2021/07/08 05:12:57;;;;;;;6.65;4.90;;;18.20;80.40;;;;;;5113076;28;20115;-85
2021/07/08 05:15:23;;;;;;;6.15;4.03;;;18.20;80.50;;;;;;5112245;28;20119;-84
2021/07/08 05:17:50;;;;;;;6.53;4.60;;;18.20;80.50;;;;;;5113070;28;20036;-83
2021/07/08 05:20:17;;;;;;;7.82;4.63;;;18.10;80.50;;;;;;5112599;28;20020;-82
2021/07/08 05:22:46;;;;;;;8.10;5.28;;;18.20;80.70;;;;;;5096357;28;20031;-83
2021/07/08 05:25:16;;;;;;;7.55;6.22;;;18.20;80.70;;;;;;5112916;28;20027;-84
2021/07/08 05:27:42;;;;;;;13.13;6.95;;;18.20;80.70;;;;;;5113276;28;20027;-85
2021/07/08 05:30:09;;;;;;;9.32;6.55;;;18.20;80.70;;;;;;5096065;28;20031;-85
2021/07/08 05:32:35;;;;;;;11.43;6.65;;;18.30;80.70;;;;;;5112460;28;20642;-85
2021/07/08 05:35:01;;;;;;;7.65;6.43;;;18.40;80.40;;;;;;5095860;28;20063;-85
2021/07/08 05:37:27;;;;;;;6.43;5.82;;;18.70;79.70;;;;;;5112251;28;20498;-84
2021/07/08 05:39:52;;;;;;;10.95;5.90;;;19.00;79.00;;;;;;5112605;28;20112;-84
2021/07/08 05:42:18;;;;;;;6.80;6.18;;;19.10;78.60;;;;;;5094884;28;20032;-83
2021/07/08 05:44:44;;;;;;;7.78;6.25;;;19.40;78.20;;;;;;5113075;28;20035;-84
2021/07/08 05:47:10;;;;;;;7.07;5.90;;;20.00;76.60;;;;;;5095763;28;20020;-84
2021/07/08 05:49:35;;;;;;;7.45;5.53;;;20.50;74.80;;;;;;5094679;28;20671;-84
2021/07/08 05:52:01;;;;;;;6.03;4.90;;;21.10;73.00;;;;;;5112772;28;20030;-83
2021/07/08 05:54:27;;;;;;;5.43;4.78;;;21.60;71.60;;;;;;5094101;28;20061;-83
2021/07/08 05:56:53;;;;;;;11.52;4.55;;;22.30;69.80;;;;;;5094578;28;20039;-84
2021/07/08 05:59:18;;;;;;;5.47;4.82;;;23.20;67.40;;;;;;5094833;28;20055;-83
2021/07/08 06:01:44;;;;;;;8.00;4.30;;;24.00;66.10;;;;;;5095254;28;20387;-83
2021/07/08 06:04:10;;;;;;;3.92;3.50;;;24.90;64.20;;;;;;5095164;28;20028;-83
2021/07/08 06:06:35;;;;;;;7.72;3.53;;;25.70;61.80;;;;;;5094861;28;20027;-83
2021/07/08 06:09:01;;;;;;;6.97;3.63;;;26.40;60.30;;;;;;5112191;28;20024;-83
2021/07/08 06:11:27;;;;;;;7.32;3.50;;;26.70;59.30;;;;;;5111378;28;20072;-83
2021/07/08 06:13:52;;;;;;;6.05;4.13;;;26.70;58.00;;;;;;5078366;28;20039;-83
2021/07/08 06:16:18;;;;;;;32.10;6.93;;;26.30;58.60;;;;;;5112334;28;20165;-83
2021/07/08 06:18:43;;;;;;;13.00;4.90;;;26.10;59.20;;;;;;5078344;28;20456;-84
2021/07/08 06:21:13;;;;;;;21.77;5.80;;;26.20;58.90;;;;;;5095271;28;20523;-83
2021/07/08 06:23:39;;;;;;;11.50;4.32;;;26.70;57.50;;;;;;5111462;28;21049;-83
2021/07/08 06:26:04;;;;;;;6.07;3.80;;;27.00;56.70;;;;;;5112265;28;20047;-84
2021/07/08 06:28:30;;;;;;;4.15;3.17;;;27.50;55.60;;;;;;5094481;28;20489;-83
2021/07/08 06:30:56;;;;;;;5.75;3.13;;;27.70;54.70;;;;;;5078860;28;20023;-83
2021/07/08 06:33:22;;;;;;;5.60;3.33;;;27.60;54.70;;;;;;5111698;28;20118;-82
2021/07/08 06:35:48;;;;;;;6.07;3.40;;;27.60;54.80;;;;;;5111252;28;20424;-84
2021/07/08 06:38:14;;;;;;;6.88;3.15;;;28.10;54.10;;;;;;5111654;28;20027;-84
2021/07/08 06:40:39;;;;;;;6.03;2.92;;;28.40;53.20;;;;;;5110527;28;20034;-84
2021/07/08 06:43:05;;;;;;;3.50;3.20;;;28.90;52.00;;;;;;5111548;28;20039;-83
2021/07/08 06:45:35;;;;;;;3.92;3.00;;;29.40;51.20;;;;;;5093600;28;20032;-84
2021/07/08 06:48:03;;;;;;;4.95;2.60;;;30.00;50.20;;;;;;5111249;28;20063;-85
2021/07/08 06:50:30;;;;;;;3.83;2.40;;;30.70;48.50;;;;;;5093795;28;20499;-85
2021/07/08 06:52:56;;;;;;;3.45;2.60;;;31.40;47.00;;;;;;5112693;28;20080;-84
2021/07/08 06:55:22;;;;;;;4.40;2.20;;;31.30;46.50;;;;;;5094341;28;20487;-83
2021/07/08 06:57:50;;;;;;;7.10;2.80;;;31.10;46.40;;;;;;5093352;28;20530;-83
2021/07/08 07:00:22;;;;;;;5.40;2.70;;;31.20;46.10;;;;;;5094621;28;20023;-83
2021/07/08 07:02:47;;;;;;;8.20;3.40;;;30.90;46.20;;;;;;5112208;27;20019;-83
2021/07/08 07:05:14;;;;;;;6.95;3.22;;;30.40;47.20;;;;;;5094134;28;20032;-82
2021/07/08 07:07:40;;;;;;;3.72;3.15;;;29.60;48.30;;;;;;5075956;28;20027;-85
2021/07/08 07:10:06;;;;;;;4.75;2.97;;;29.00;49.50;;;;;;5111416;28;20135;-84
2021/07/08 07:12:31;;;;;;;5.10;3.78;;;28.40;51.00;;;;;;5110151;28;20514;-84
2021/07/08 07:14:57;;;;;;;7.35;3.20;;;27.80;52.40;;;;;;5077168;28;20131;-83
2021/07/08 07:17:23;;;;;;;5.65;3.67;;;27.50;52.90;;;;;;5111178;28;20027;-83
2021/07/08 07:19:48;;;;;;;4.78;3.17;;;27.30;53.60;;;;;;5093713;28;20519;-83
2021/07/08 07:22:14;;;;;;;4.68;3.53;;;27.20;53.70;;;;;;5096255;28;20027;-84
2021/07/08 07:24:41;;;;;;;7.03;3.88;;;27.20;53.60;;;;;;5094514;28;20035;-84
2021/07/08 07:27:07;;;;;;;7.13;5.22;;;27.60;53.70;;;;;;5100976;28;20562;-82
2021/07/08 07:29:32;;;;;;;7.78;4.32;;;28.00;51.70;;;;;;5091551;28;20039;-84
2021/07/08 07:31:58;;;;;;;6.90;4.50;;;28.20;51.80;;;;;;5086057;28;20207;-83
2021/07/08 07:34:24;;;;;;;5.78;3.88;;;28.60;51.60;;;;;;5082812;28;20399;-84
2021/07/08 07:36:49;;;;;;;4.47;3.30;;;29.30;50.00;;;;;;5114483;28;20869;-85
2021/07/08 07:39:15;;;;;;;5.57;3.90;;;29.70;48.80;;;;;;5082047;28;20095;-84
2021/07/08 07:41:41;;;;;;;5.70;2.88;;;30.30;48.00;;;;;;5112555;28;20502;-84
2021/07/08 07:44:06;;;;;;;5.07;3.25;;;30.70;47.10;;;;;;5111492;28;20498;-85
2021/07/08 07:46:33;;;;;;;5.97;2.30;;;30.90;46.30;;;;;;5094102;28;20054;-83
2021/07/08 07:48:59;;;;;;;5.90;3.30;;;31.20;45.40;;;;;;5093793;28;20072;-84
2021/07/08 07:51:25;;;;;;;6.40;3.40;;;31.30;44.20;;;;;;5095162;28;20101;-85
2021/07/08 07:53:51;;;;;;;6.28;3.10;;;31.10;45.10;;;;;;5095459;28;20039;-84
2021/07/08 07:56:16;;;;;;;5.47;3.42;;;31.20;45.20;;;;;;5115533;28;20409;-85
2021/07/08 07:58:42;;;;;;;5.80;3.28;;;31.20;43.80;;;;;;5079668;28;20026;-84
2021/07/08 08:01:08;;;;;;;4.45;2.47;;;31.10;44.90;;;;;;5116537;28;20031;-85
2021/07/08 08:03:34;;;;;;;3.47;2.00;;;31.20;44.90;;;;;;5098815;28;20028;-82
2021/07/08 08:08:45;;;;;;;4.30;2.15;;;31.60;44.20;;;;;;5103546;28;20498;-84
2021/07/08 08:11:11;;;;;;;3.50;2.75;;;31.60;44.30;;;;;;5101410;28;20023;-84
2021/07/08 08:13:38;;;;;;;3.40;2.47;;;31.50;44.20;;;;;;5116825;28;20042;-84
2021/07/08 08:16:07;;;;;;;4.68;3.25;;;31.10;44.90;;;;;;5102927;28;20044;-84
2021/07/08 08:18:33;;;;;;;3.47;3.17;;;30.70;45.60;;;;;;5086487;28;20114;-84
2021/07/08 08:20:59;;;;;;;4.10;3.70;;;30.20;46.60;;;;;;5104011;28;20027;-84
2021/07/08 08:23:25;;;;;;;8.50;4.85;;;29.80;47.70;;;;;;5123957;28;20044;-85
2021/07/08 08:25:50;;;;;;;4.22;3.45;;;29.70;48.50;;;;;;5100857;28;20460;-84
2021/07/08 08:28:16;;;;;;;6.65;3.35;;;29.50;48.40;;;;;;5113352;28;20011;-85
2021/07/08 08:30:44;;;;;;;5.00;3.97;;;29.70;48.10;;;;;;5095237;28;20028;-82
2021/07/08 08:33:10;;;;;;;6.82;3.90;;;29.90;47.80;;;;;;5100821;28;20023;-84
2021/07/08 08:35:36;;;;;;;8.10;4.65;;;30.00;47.80;;;;;;5116783;28;20116;-84
2021/07/08 08:38:03;;;;;;;4.68;3.92;;;30.00;47.60;;;;;;5100286;28;20251;-84
2021/07/08 08:40:29;;;;;;;8.07;5.00;;;29.90;48.10;;;;;;5107473;28;20035;-83
2021/07/08 08:42:55;;;;;;;8.73;5.43;;;30.00;48.00;;;;;;5109740;28;20609;-84
2021/07/08 08:45:20;;;;;;;5.25;4.75;;;30.00;48.50;;;;;;5111023;28;20028;-84
2021/07/08 08:48:05;;;;;;;6.82;4.78;;;29.90;48.50;;;;;;5105090;28;20490;-84
2021/07/08 08:50:35;;;;;;;6.60;4.93;;;29.70;48.50;;;;;;5114036;28;20491;-83
2021/07/08 08:53:04;;;;;;;9.73;5.22;;;29.40;49.30;;;;;;5113395;28;20463;-83
2021/07/08 08:55:30;;;;;;;7.18;6.47;;;29.20;49.60;;;;;;5112158;28;20476;-84
2021/07/08 08:57:58;;;;;;;9.98;6.55;;;29.10;50.30;;;;;;5094156;28;20039;-85
2021/07/08 09:00:24;;;;;;;9.25;7.78;;;29.10;50.90;;;;;;5111269;28;20032;-83
2021/07/08 09:03:06;;;;;;;6.85;6.18;;;29.20;51.30;;;;;;5110147;28;20069;-85
2021/07/08 09:05:37;;;;;;;;;;;29.50;51.60;;;;;;5111432;28;20028;-88
2021/07/08 09:08:21;;;;;;;10.25;6.22;;;30.20;50.70;;;;;;5109759;28;20390;-85
2021/07/08 09:11:03;;;;;;;8.02;7.07;;;30.90;49.10;;;;;;5109133;28;20039;-84
2021/07/08 09:13:53;;;;;;;8.02;5.57;;;31.50;46.70;;;;;;5110107;28;20036;-87
2021/07/08 09:16:41;;;;;;;11.02;6.30;;;32.00;47.20;;;;;;5109843;28;20031;-85
2021/07/08 09:19:29;;;;;;;7.32;5.43;;;32.50;45.70;;;;;;5109678;28;20471;-85
2021/07/08 09:22:01;;;;;;;7.10;5.03;;;32.90;45.10;;;;;;5109415;28;20088;-85
2021/07/08 09:24:34;;;;;;;6.57;5.50;;;33.40;43.60;;;;;;5110050;28;20081;-86
2021/07/08 09:27:09;;;;;;;9.38;5.95;;;33.60;42.50;;;;;;5109154;28;20068;-88
2021/07/08 09:29:41;;;;;;;5.30;4.80;;;33.50;42.00;;;;;;5112035;28;20478;-85
2021/07/08 09:32:12;;;;;;;6.82;4.57;;;33.30;42.30;;;;;;5112964;28;20054;-83
2021/07/08 09:34:39;;;;;;;7.25;4.32;;;33.20;42.30;;;;;;5113683;28;20455;-84
2021/07/08 09:37:12;;;;;;;6.32;4.22;;;33.00;42.60;;;;;;5118861;28;20083;-84
2021/07/08 09:39:53;;;;;;;5.43;4.88;;;32.70;43.00;;;;;;5126243;28;20023;-85
2021/07/08 09:42:39;;;;;;;6.35;4.30;;;32.40;42.80;;;;;;5126534;28;20028;-84
2021/07/08 09:45:13;;;;;;;6.05;4.90;;;32.40;43.50;;;;;;5122757;28;20038;-85
2021/07/08 09:47:45;;;;;;;7.10;5.28;;;32.20;43.50;;;;;;5113281;28;20062;-85
2021/07/08 09:50:25;;;;;;;4.85;4.32;;;32.20;43.70;;;;;;5113915;28;20202;-85
2021/07/08 09:53:06;;;;;;;4.57;4.07;;;31.90;44.10;;;;;;5113082;28;20024;-84
2021/07/08 09:58:56;;;;;;;5.35;4.20;;;31.40;45.20;;;;;;5105219;28;20032;-85
2021/07/08 10:01:23;;;;;;;5.45;4.85;;;31.10;45.40;;;;;;5113429;28;20038;-85
2021/07/08 10:03:49;;;;;;;6.90;4.53;;;31.00;45.40;;;;;;5113056;28;20040;-85
2021/07/08 10:06:16;;;;;;;8.65;5.22;;;30.80;46.40;;;;;;5113087;28;20425;-84
2021/07/08 10:08:43;;;;;;;8.40;5.00;;;30.40;46.10;;;;;;5113190;28;20041;-85
2021/07/08 10:11:13;;;;;;;8.02;4.05;;;30.30;46.40;;;;;;5111923;28;20122;-84
2021/07/08 10:13:40;;;;;;;6.20;4.43;;;30.20;46.70;;;;;;5114056;28;20129;-85
2021/07/08 10:16:07;;;;;;;5.80;4.60;;;30.30;47.00;;;;;;5097671;28;20131;-85
2021/07/08 10:18:38;;;;;;;7.22;4.22;;;30.40;46.50;;;;;;5114867;28;20028;-84
2021/07/08 10:21:05;;;;;;;4.22;3.60;;;30.60;46.00;;;;;;5111642;28;20019;-84
2021/07/08 10:23:35;;;;;;;5.03;3.83;;;30.70;45.70;;;;;;5112413;28;20040;-85
2021/07/08 10:26:05;;;;;;;5.18;4.38;;;30.70;45.80;;;;;;5094634;28;20032;-84
2021/07/08 10:28:33;;;;;;;4.43;3.42;;;30.70;45.50;;;;;;5112318;28;20484;-84
2021/07/08 10:31:00;;;;;;;5.13;3.40;;;30.60;45.70;;;;;;5111507;28;20108;-84
2021/07/08 10:33:26;;;;;;;8.63;4.55;;;30.70;46.00;;;;;;5113475;28;20119;-86
2021/07/08 10:35:53;;;;;;;6.00;4.75;;;30.90;45.80;;;;;;5095747;28;20114;-85
2021/07/08 10:38:40;;;;;;;5.97;4.10;;;30.80;45.50;;;;;;5094624;28;20092;-85
2021/07/08 10:41:09;;;;;;;5.82;3.20;;;30.70;45.90;;;;;;5111186;28;20055;-86
2021/07/08 10:43:40;;;;;;;4.72;3.22;;;30.60;45.60;;;;;;5112139;28;20031;-87
2021/07/08 10:46:08;;;;;;;3.90;2.90;;;30.80;45.20;;;;;;5112711;28;20035;-82
2021/07/08 10:48:39;;;;;;;5.75;2.72;;;31.00;44.70;;;;;;5111820;28;20425;-87
2021/07/08 10:51:06;;;;;;;6.43;3.47;;;31.20;44.00;;;;;;5095009;28;20023;-87
2021/07/08 10:53:42;;;;;;;6.30;4.05;;;31.20;44.30;;;;;;5113674;28;20446;-86
2021/07/08 10:56:08;;;;;;;5.65;3.40;;;31.10;44.50;;;;;;5112123;28;20026;-87
2021/07/08 10:58:40;;;;;;;5.10;3.03;;;31.10;44.20;;;;;;5096017;28;20032;-90
2021/07/08 11:01:08;;;;;;;3.42;2.78;;;31.10;43.90;;;;;;5112520;28;20110;-87
2021/07/08 11:03:40;;;;;;;4.15;3.00;;;31.20;43.90;;;;;;5096104;28;20471;-86
2021/07/08 11:06:18;;;;;;;3.70;2.45;;;31.30;43.30;;;;;;5111790;28;20034;-87
2021/07/08 11:08:52;;;;;;;4.32;3.10;;;31.20;43.10;;;;;;5112192;28;20024;-87
2021/07/08 11:11:24;;;;;;;5.43;2.70;;;30.90;43.00;;;;;;5111364;28;20032;-87
2021/07/08 11:13:51;;;;;;;2.95;1.45;;;30.70;44.00;;;;;;5112090;28;20035;-87
2021/07/08 11:16:45;;;;;;;5.15;2.15;;;30.70;43.40;;;;;;5111116;28;20023;-87
2021/07/08 11:19:15;;;;;;;3.85;2.28;;;30.90;43.30;;;;;;5111625;28;20412;-88
2021/07/08 11:21:55;;;;;;;2.88;2.05;;;31.00;43.60;;;;;;5124409;28;20031;-88
2021/07/08 11:24:24;;;;;;;4.05;2.25;;;31.00;42.90;;;;;;5116046;28;20501;-85
2021/07/08 11:26:59;;;;;;;4.57;2.80;;;31.10;42.80;;;;;;5112513;28;20019;-87
2021/07/08 11:29:34;;;;;;;3.78;2.67;;;31.00;42.30;;;;;;5110895;28;20020;-87
2021/07/08 11:32:00;;;;;;;5.03;2.58;;;30.80;42.80;;;;;;5111901;28;20038;-87
2021/07/08 11:34:26;;;;;;;4.53;2.47;;;30.70;43.40;;;;;;5113062;28;20087;-87
2021/07/08 11:36:56;;;;;;;2.88;2.55;;;30.70;43.30;;;;;;5077693;28;20126;-88
2021/07/08 11:39:26;;;;;;;5.60;2.78;;;30.70;43.80;;;;;;5095250;28;20028;-87
2021/07/08 11:41:56;;;;;;;2.58;1.83;;;30.40;42.30;;;;;;5112658;28;20020;-87
2021/07/08 11:44:30;;;;;;;4.60;1.80;;;29.80;43.00;;;;;;5094097;28;20088;-87
2021/07/08 11:46:57;;;;;;;2.63;0.80;;;29.70;44.10;;;;;;5114271;28;20023;-86
2021/07/08 11:49:26;;;;;;;3.20;1.88;;;29.50;43.70;;;;;;5114009;28;20051;-87
2021/07/08 11:51:51;;;;;;;6.18;2.00;;;29.60;44.00;;;;;;5111929;28;20046;-87
2021/07/08 11:54:17;;;;;;;3.65;2.22;;;29.70;44.30;;;;;;5110821;28;20027;-86
2021/07/08 11:56:43;;;;;;;8.63;2.60;;;29.80;44.20;;;;;;5077526;28;20066;-87
2021/07/08 11:59:08;;;;;;;2.80;1.40;;;29.90;44.10;;;;;;5078297;28;20534;-85
2021/07/08 12:01:40;;;;;;;3.55;2.42;;;29.70;44.10;;;;;;5077135;28;20055;-85
2021/07/08 12:04:05;;;;;;;4.97;3.47;;;29.60;43.50;;;;;;5111811;28;20407;-85
2021/07/08 12:06:31;;;;;;;5.88;3.17;;;29.50;44.30;;;;;;5093712;28;20058;-86
2021/07/08 12:09:05;;;;;;;6.88;3.60;;;29.50;45.80;;;;;;5094639;28;20034;-87
2021/07/08 12:11:40;;;;;;;4.05;1.90;;;29.70;45.60;;;;;;5112165;28;20111;-87
2021/07/08 12:14:11;;;;;;;3.85;1.80;;;29.90;45.20;;;;;;5112514;28;20027;-87
2021/07/08 12:16:41;;;;;;;5.77;2.60;;;30.00;43.80;;;;;;5112139;28;20123;-86
2021/07/08 12:19:26;;;;;;;8.45;2.90;;;30.20;44.10;;;;;;5110768;28;20273;-85
2021/07/08 12:21:54;;;;;;;6.80;4.32;;;30.40;44.20;;;;;;5111082;28;20034;-86
2021/07/08 12:24:28;;;;;;;3.35;2.30;;;30.60;44.80;;;;;;5112109;28;20085;-86
2021/07/08 12:26:58;;;;;;;5.97;4.82;;;30.70;43.10;;;;;;5111754;28;20371;-87
2021/07/08 12:29:27;;;;;;;6.80;5.30;;;30.80;44.10;;;;;;5110463;28;20085;-88
2021/07/08 12:32:01;;;;;;;7.25;4.97;;;30.70;45.10;;;;;;5113689;28;20028;-85
2021/07/08 12:34:37;;;;;;;7.18;5.85;;;30.70;44.90;;;;;;5109770;28;20020;-87
2021/07/08 12:37:13;;;;;;;9.73;4.85;;;30.90;44.40;;;;;;5112314;28;20036;-87
2021/07/08 12:39:40;;;;;;;6.93;4.20;;;30.90;45.10;;;;;;5110645;28;20031;-87
2021/07/08 12:42:13;;;;;;;4.95;4.47;;;30.80;44.50;;;;;;5110930;28;20027;-88
2021/07/08 12:44:40;;;;;;;6.50;4.20;;;31.00;44.50;;;;;;5110337;28;20038;-88
2021/07/08 12:47:06;;;;;;;5.22;3.08;;;31.10;43.80;;;;;;5111334;28;20134;-87
2021/07/08 12:49:32;;;;;;;4.68;3.33;;;30.90;43.00;;;;;;5076494;28;20056;-87
2021/07/08 12:51:58;;;;;;;5.53;3.80;;;30.50;43.20;;;;;;5111395;28;20088;-86
2021/07/08 12:54:25;;;;;;;13.02;3.90;;;30.20;43.40;;;;;;5109999;28;20076;-89